createdAt,value
2019-04-25T00:02:07.000Z,98915.00
2019-04-25T00:04:38.742Z,98917.00
2019-04-25T00:07:11.911Z,98923.00
2019-04-25T00:09:51.619Z,98910.00
2019-04-25T00:12:23.823Z,98918.00
2019-04-25T00:14:54.429Z,98927.00
2019-04-25T00:17:25.526Z,98922.00
2019-04-25T00:19:56.094Z,98928.00
2019-04-25T00:22:51.544Z,98935.00
2019-04-25T00:25:44.450Z,98947.00
2019-04-25T00:28:12.868Z,98953.00
2019-04-25T00:30:44.463Z,98960.00
2019-04-25T00:33:15.252Z,98968.00
2019-04-25T00:35:45.864Z,98974.00
2019-04-25T00:38:16.442Z,98985.00
2019-04-25T00:40:48.009Z,98993.00
2019-04-25T00:43:18.636Z,98996.00
2019-04-25T00:45:49.559Z,98988.00
2019-04-25T00:48:20.220Z,98997.00
2019-04-25T00:50:52.079Z,98994.00
2019-04-25T00:53:23.198Z,98993.00
2019-04-25T00:55:53.868Z,99005.00
2019-04-25T00:58:39.444Z,99003.00
2019-04-25T01:01:31.772Z,98998.00
2019-04-25T01:04:04.382Z,99001.00
2019-04-25T01:06:34.932Z,98996.00
2019-04-25T01:09:13.603Z,99005.00
2019-04-25T01:11:44.358Z,99011.00
2019-04-25T01:14:14.944Z,99009.00
2019-04-25T01:16:45.482Z,99014.00
2019-04-25T01:19:16.132Z,99002.00
2019-04-25T01:21:47.005Z,99009.00
2019-04-25T01:24:17.543Z,99005.00
2019-04-25T01:26:48.264Z,99012.00
2019-04-25T01:29:18.898Z,99015.00
2019-04-25T01:31:50.106Z,99004.00
2019-04-25T01:34:27.719Z,99009.00
2019-04-25T01:37:06.406Z,99015.00
2019-04-25T01:39:44.182Z,99022.00
2019-04-25T01:42:39.201Z,99034.00
2019-04-25T01:45:11.034Z,99035.00
2019-04-25T01:47:41.581Z,99033.00
2019-04-25T01:50:13.727Z,99040.00
2019-04-25T01:52:44.245Z,99036.00
2019-04-25T01:55:14.906Z,99030.00
2019-04-25T01:57:46.915Z,99048.00
2019-04-25T02:00:21.313Z,99047.00
2019-04-25T02:02:54.550Z,99051.00
2019-04-25T02:05:24.389Z,99051.00
2019-04-25T02:07:55.789Z,99059.00
2019-04-25T02:10:27.105Z,99055.00
2019-04-25T02:13:00.649Z,99064.00
2019-04-25T02:15:33.430Z,99068.00
2019-04-25T02:18:04.283Z,99075.00
2019-04-25T02:20:36.422Z,99065.00
2019-04-25T02:23:06.933Z,99066.00
2019-04-25T02:25:37.492Z,99077.00
2019-04-25T02:28:08.076Z,99081.00
2019-04-25T02:30:38.852Z,99081.00
2019-04-25T02:33:11.180Z,99087.00
2019-04-25T02:35:43.970Z,99089.00
2019-04-25T02:38:16.647Z,99078.00
2019-04-25T02:40:46.318Z,99082.00
2019-04-25T02:43:16.855Z,99073.00
2019-04-25T02:46:07.412Z,99081.00
2019-04-25T02:49:09.136Z,99075.00
2019-04-25T02:51:44.967Z,99090.00
2019-04-25T02:54:14.729Z,99093.00
2019-04-25T02:56:47.104Z,99101.00
2019-04-25T02:59:17.674Z,99098.00
2019-04-25T03:01:48.335Z,99100.00
2019-04-25T03:04:18.890Z,99099.00
2019-04-25T03:06:49.513Z,99095.00
2019-04-25T03:09:20.033Z,99097.00
2019-04-25T03:11:50.723Z,99100.00
2019-04-25T03:14:21.323Z,99100.00
2019-04-25T03:16:54.204Z,99106.00
2019-04-25T03:19:43.992Z,99105.00
2019-04-25T03:22:16.423Z,99103.00
2019-04-25T03:24:47.069Z,99113.00
2019-04-25T03:27:17.719Z,99104.00
2019-04-25T03:29:48.244Z,99112.00
2019-04-25T03:32:20.374Z,99115.00
2019-04-25T03:34:50.907Z,99119.00
2019-04-25T03:37:23.346Z,99126.00
2019-04-25T03:39:54.018Z,99125.00
2019-04-25T03:42:24.704Z,99127.00
2019-04-25T03:44:55.239Z,99125.00
2019-04-25T03:47:25.926Z,99122.00
2019-04-25T03:49:56.515Z,99126.00
2019-04-25T03:52:28.277Z,99129.00
2019-04-25T03:55:00.130Z,99133.00
2019-04-25T03:57:30.613Z,99131.00
2019-04-25T04:00:01.229Z,99129.00
2019-04-25T04:02:31.773Z,99139.00
2019-04-25T04:05:04.860Z,99145.00
2019-04-25T04:07:34.600Z,99146.00
2019-04-25T04:10:06.599Z,99158.00
2019-04-25T04:12:37.365Z,99159.00
2019-04-25T04:15:08.503Z,99165.00
2019-04-25T04:17:50.381Z,99164.00
2019-04-25T04:20:48.560Z,99170.00
2019-04-25T04:23:34.598Z,99158.00
2019-04-25T04:26:05.372Z,99160.00
2019-04-25T04:28:37.972Z,99163.00
2019-04-25T04:31:08.506Z,99171.00
2019-04-25T04:33:40.221Z,99174.00
2019-04-25T04:36:10.897Z,99176.00
2019-04-25T04:38:41.629Z,99180.00
2019-04-25T04:41:13.900Z,99181.00
2019-04-25T04:43:44.436Z,99180.00
2019-04-25T04:46:18.197Z,99175.00
2019-04-25T04:48:48.790Z,99177.00
2019-04-25T04:51:19.363Z,99183.00
2019-04-25T04:53:49.941Z,99178.00
2019-04-25T04:56:20.584Z,99179.00
2019-04-25T04:58:51.207Z,99190.00
2019-04-25T05:01:24.768Z,99181.00
2019-04-25T05:04:04.412Z,99190.00
2019-04-25T05:06:43.707Z,99202.00
2019-04-25T05:09:17.738Z,99197.00
2019-04-25T05:11:48.434Z,99201.00
2019-04-25T05:14:19.513Z,99208.00
2019-04-25T05:16:51.241Z,99214.00
2019-04-25T05:19:22.411Z,99217.00
2019-04-25T05:21:54.091Z,99213.00
2019-04-25T05:24:26.293Z,99225.00
2019-04-25T05:26:57.006Z,99227.00
2019-04-25T05:29:27.592Z,99225.00
2019-04-25T05:31:58.201Z,99236.00
2019-04-25T05:34:28.910Z,99234.00
2019-04-25T05:36:59.479Z,99231.00
2019-04-25T05:39:30.019Z,99232.00
2019-04-25T05:42:15.138Z,99231.00
2019-04-25T05:44:56.161Z,99227.00
2019-04-25T05:47:27.214Z,99231.00
2019-04-25T05:49:57.791Z,99236.00
2019-04-25T05:52:28.363Z,99238.00
2019-04-25T05:54:58.920Z,99227.00
2019-04-25T05:57:29.536Z,99237.00
2019-04-25T06:00:00.133Z,99251.00
2019-04-25T06:02:30.689Z,99255.00
2019-04-25T06:05:01.274Z,99257.00
2019-04-25T06:07:33.152Z,99263.00
2019-04-25T06:10:34.797Z,99269.00
2019-04-25T06:13:30.342Z,99268.00
2019-04-25T06:16:15.912Z,99269.00
2019-04-25T06:19:19.669Z,99266.00
2019-04-25T06:21:50.219Z,99273.00
2019-04-25T06:24:35.666Z,99274.00
2019-04-25T06:27:25.865Z,99289.00
2019-04-25T06:30:20.380Z,99295.00
2019-04-25T06:32:53.219Z,99308.00
2019-04-25T06:35:25.140Z,99313.00
2019-04-25T06:37:56.665Z,99314.00
2019-04-25T06:40:29.739Z,99323.00
2019-04-25T06:42:59.900Z,99322.00
2019-04-25T06:45:58.715Z,99327.00
2019-04-25T06:48:36.446Z,99325.00
2019-04-25T06:51:07.138Z,99327.00
2019-04-25T06:53:37.701Z,99321.00
2019-04-25T06:56:08.276Z,99313.00
2019-04-25T06:58:38.814Z,99319.00
2019-04-25T07:01:09.654Z,99317.00
2019-04-25T07:03:40.198Z,99326.00
2019-04-25T07:06:10.897Z,99329.00
2019-04-25T07:08:42.996Z,99333.00
2019-04-25T07:11:14.068Z,99324.00
2019-04-25T07:13:44.868Z,99333.00
2019-04-25T07:16:15.469Z,99326.00
2019-04-25T07:18:45.983Z,99334.00
2019-04-25T07:21:18.791Z,99332.00
2019-04-25T07:23:49.559Z,99333.00
2019-04-25T07:26:39.745Z,99333.00
2019-04-25T07:29:35.727Z,99338.00
2019-04-25T07:32:24.234Z,99340.00
2019-04-25T07:34:55.132Z,99346.00
2019-04-25T07:37:26.093Z,99354.00
2019-04-25T07:39:56.660Z,99350.00
2019-04-25T07:42:27.675Z,99353.00
2019-04-25T07:44:58.285Z,99348.00
2019-04-25T07:47:29.262Z,99357.00
2019-04-25T07:49:59.881Z,99356.00
2019-04-25T07:52:30.911Z,99359.00
2019-04-25T07:55:03.789Z,99353.00
2019-04-25T07:57:34.974Z,99350.00
2019-04-25T08:00:14.179Z,99347.00
2019-04-25T08:02:45.020Z,99348.00
2019-04-25T08:05:19.254Z,99356.00
2019-04-25T08:07:49.816Z,99357.00
2019-04-25T08:10:21.777Z,99354.00
2019-04-25T08:12:53.614Z,99354.00
2019-04-25T08:15:48.984Z,99355.00
2019-04-25T08:18:20.383Z,99359.00
2019-04-25T08:20:51.258Z,99366.00
2019-04-25T08:23:23.837Z,99364.00
2019-04-25T08:25:54.522Z,99366.00
2019-04-25T08:28:25.264Z,99368.00
2019-04-25T08:30:56.024Z,99375.00
2019-04-25T08:33:27.099Z,99370.00
2019-04-25T08:36:06.639Z,99366.00
2019-04-25T08:38:31.513Z,99375.00
2019-04-25T08:41:03.971Z,99375.00
2019-04-25T08:43:38.766Z,99381.00
2019-04-25T08:46:09.521Z,99383.00
2019-04-25T08:48:57.616Z,99386.00
2019-04-25T08:51:32.025Z,99388.00
2019-04-25T08:54:09.263Z,99388.00
2019-04-25T08:57:00.366Z,99385.00
2019-04-25T08:59:53.060Z,99372.00
2019-04-25T09:02:43.554Z,99374.00
2019-04-25T09:05:21.891Z,99374.00
2019-04-25T09:07:54.174Z,99367.00
2019-04-25T09:10:24.983Z,99378.00
2019-04-25T09:12:56.641Z,99378.00
2019-04-25T09:15:27.194Z,99372.00
2019-04-25T09:17:57.971Z,99370.00
2019-04-25T09:20:28.560Z,99379.00
2019-04-25T09:22:59.109Z,99372.00
2019-04-25T09:25:29.693Z,99372.00
2019-04-25T09:28:00.208Z,99371.00
2019-04-25T09:30:30.855Z,99355.00
2019-04-25T09:33:01.426Z,99355.00
2019-04-25T09:35:33.475Z,99348.00
2019-04-25T09:38:04.267Z,99342.00
2019-04-25T09:40:37.233Z,99352.00
2019-04-25T09:43:08.031Z,99339.00
2019-04-25T09:45:57.501Z,99343.00
2019-04-25T09:48:49.942Z,99331.00
2019-04-25T09:51:30.407Z,99325.00
2019-04-25T09:54:18.502Z,99326.00
2019-04-25T09:56:51.192Z,99326.00
2019-04-25T09:59:27.897Z,99326.00
2019-04-25T10:01:57.153Z,99326.00
2019-04-25T10:04:27.638Z,99325.00
2019-04-25T10:06:58.232Z,99326.00
2019-04-25T10:09:29.283Z,99324.00
2019-04-25T10:11:59.857Z,99334.00
2019-04-25T10:15:45.677Z,99330.00
2019-04-25T10:18:16.425Z,99319.00
2019-04-25T10:20:47.996Z,99307.00
2019-04-25T10:23:18.559Z,99317.00
2019-04-25T10:25:49.896Z,99312.00
2019-04-25T10:28:20.529Z,99299.00
2019-04-25T10:30:51.172Z,99309.00
2019-04-25T10:33:25.321Z,99312.00
2019-04-25T10:36:00.181Z,99311.00
2019-04-25T10:38:29.129Z,99312.00
2019-04-25T10:40:59.716Z,99310.00
2019-04-25T10:43:30.281Z,99305.00
2019-04-25T10:46:00.866Z,99299.00
2019-04-25T10:48:31.494Z,99291.00
2019-04-25T10:51:04.022Z,99291.00
2019-04-25T10:53:34.471Z,99293.00
2019-04-25T10:56:06.018Z,99289.00
2019-04-25T10:58:37.054Z,99294.00
2019-04-25T11:01:07.843Z,99296.00
2019-04-25T11:04:00.031Z,99286.00
2019-04-25T11:06:30.626Z,99289.00
2019-04-25T11:09:01.196Z,99285.00
2019-04-25T11:11:34.941Z,99283.00
2019-04-25T11:14:07.469Z,99286.00
2019-04-25T11:16:38.047Z,99287.00
2019-04-25T11:19:09.568Z,99282.00
2019-04-25T11:21:40.132Z,99268.00
2019-04-25T11:24:10.669Z,99269.00
2019-04-25T11:26:41.530Z,99272.00
2019-04-25T11:29:13.248Z,99271.00
2019-04-25T11:31:47.477Z,99275.00
2019-04-25T11:34:18.929Z,99262.00
2019-04-25T11:36:49.590Z,99256.00
2019-04-25T11:39:38.203Z,99253.00
2019-04-25T11:42:13.092Z,99267.00
2019-04-25T11:44:45.767Z,99251.00
2019-04-25T11:47:16.652Z,99252.00
2019-04-25T11:49:47.860Z,99259.00
2019-04-25T11:52:27.513Z,99247.00
2019-04-25T11:54:52.971Z,99247.00
2019-04-25T11:57:24.497Z,99241.00
2019-04-25T11:59:55.916Z,99244.00
2019-04-25T12:02:27.433Z,99224.00
2019-04-25T12:04:58.011Z,99225.00
2019-04-25T12:07:28.639Z,99224.00
2019-04-25T12:09:59.154Z,99222.00
2019-04-25T12:12:31.619Z,99221.00
2019-04-25T12:15:04.457Z,99220.00
2019-04-25T12:17:36.492Z,99217.00
2019-04-25T12:20:07.395Z,99229.00
2019-04-25T12:22:38.145Z,99200.00
2019-04-25T12:25:09.448Z,99198.00
2019-04-25T12:27:40.043Z,99200.00
2019-04-25T12:30:11.079Z,99197.00
2019-04-25T12:32:41.649Z,99189.00
2019-04-25T12:35:14.110Z,99188.00
2019-04-25T12:37:44.601Z,99189.00
2019-04-25T12:40:15.552Z,99185.00
2019-04-25T12:42:46.396Z,99180.00
2019-04-25T12:45:34.398Z,99189.00
2019-04-25T12:48:05.588Z,99199.00
2019-04-25T12:50:36.182Z,99183.00
2019-04-25T12:53:07.104Z,99179.00
2019-04-25T12:55:37.652Z,99168.00
2019-04-25T12:58:08.389Z,99168.00
2019-04-25T13:00:47.807Z,99160.00
2019-04-25T13:03:14.286Z,99167.00
2019-04-25T13:05:45.009Z,99156.00
2019-04-25T13:08:15.582Z,99158.00
2019-04-25T13:10:46.288Z,99157.00
2019-04-25T13:13:17.607Z,99169.00
2019-04-25T13:15:48.351Z,99157.00
2019-04-25T13:18:19.067Z,99147.00
2019-04-25T13:20:49.666Z,99153.00
2019-04-25T13:23:20.529Z,99151.00
2019-04-25T13:25:51.229Z,99153.00
2019-04-25T13:28:40.814Z,99137.00
2019-04-25T13:31:33.276Z,99146.00
2019-04-25T13:34:10.595Z,99147.00
2019-04-25T13:36:41.164Z,99137.00
2019-04-25T13:39:18.572Z,99129.00
2019-04-25T13:41:50.281Z,99127.00
2019-04-25T13:44:20.884Z,99123.00
2019-04-25T13:46:53.201Z,99127.00
2019-04-25T13:49:25.014Z,99114.00
2019-04-25T13:51:55.679Z,99117.00
2019-04-25T13:54:28.659Z,99107.00
2019-04-25T13:57:00.375Z,99101.00
2019-04-25T13:59:51.613Z,99097.00
2019-04-25T14:02:22.763Z,99094.00
2019-04-25T14:04:53.370Z,99092.00
2019-04-25T14:07:24.849Z,99098.00
2019-04-25T14:09:55.531Z,99078.00
2019-04-25T14:12:26.881Z,99083.00
2019-04-25T14:14:58.557Z,99087.00
2019-04-25T14:17:46.386Z,99068.00
2019-04-25T14:20:30.006Z,99070.00
2019-04-25T14:23:00.652Z,99074.00
2019-04-25T14:25:31.389Z,99070.00
2019-04-25T14:28:02.002Z,99057.00
2019-04-25T14:30:34.304Z,99068.00
2019-04-25T14:33:05.121Z,99051.00
2019-04-25T14:35:35.794Z,99042.00
2019-04-25T14:38:06.439Z,99048.00
2019-04-25T14:40:37.482Z,99044.00
2019-04-25T14:43:08.400Z,99047.00
2019-04-25T14:45:44.372Z,99029.00
2019-04-25T14:48:12.358Z,99024.00
2019-04-25T14:50:42.951Z,99024.00
2019-04-25T14:53:13.791Z,99018.00
2019-04-25T14:56:01.946Z,99040.00
2019-04-25T14:58:36.676Z,99026.00
2019-04-25T15:01:08.299Z,99025.00
2019-04-25T15:03:38.870Z,99034.00
2019-04-25T15:06:09.763Z,99028.00
2019-04-25T15:08:40.592Z,99028.00
2019-04-25T15:11:11.190Z,99016.00
2019-04-25T15:13:41.767Z,99022.00
2019-04-25T15:16:12.380Z,99027.00
2019-04-25T15:18:46.876Z,99014.00
2019-04-25T15:21:15.553Z,99018.00
2019-04-25T15:23:46.154Z,99018.00
2019-04-25T15:26:16.854Z,99013.00
2019-04-25T15:28:47.397Z,99011.00
2019-04-25T15:31:18.111Z,99017.00
2019-04-25T15:33:48.769Z,99015.00
2019-04-25T15:36:28.536Z,99014.00
2019-04-25T15:39:37.151Z,99017.00
2019-04-25T15:42:27.403Z,99013.00
2019-04-25T15:45:15.524Z,99014.00
2019-04-25T15:47:46.526Z,99003.00
2019-04-25T15:50:17.653Z,99009.00
2019-04-25T15:52:51.627Z,99005.00
2019-04-25T15:55:22.314Z,99011.00
2019-04-25T15:57:53.121Z,99005.00
2019-04-25T16:00:33.156Z,99008.00
2019-04-25T16:03:04.050Z,99008.00
2019-04-25T16:05:35.597Z,99013.00
2019-04-25T16:08:07.281Z,99006.00
2019-04-25T16:10:39.706Z,99006.00
2019-04-25T16:13:10.916Z,99004.00
2019-04-25T16:15:41.637Z,99002.00
2019-04-25T16:18:12.234Z,99010.00
2019-04-25T16:20:42.941Z,98997.00
2019-04-25T16:23:32.551Z,98981.00
2019-04-25T16:26:03.613Z,99000.00
2019-04-25T16:28:34.157Z,99004.00
2019-04-25T16:31:06.795Z,99007.00
2019-04-25T16:33:37.738Z,99002.00
2019-04-25T16:36:10.001Z,98990.00
2019-04-25T16:38:41.075Z,99002.00
2019-04-25T16:41:13.151Z,99010.00
2019-04-25T16:43:48.269Z,99006.00
2019-04-25T16:46:21.899Z,99003.00
2019-04-25T16:48:52.639Z,99005.00
2019-04-25T16:51:23.411Z,99002.00
2019-04-25T16:53:54.043Z,98999.00
2019-04-25T16:56:24.691Z,99001.00
2019-04-25T16:58:55.360Z,98994.00
2019-04-25T17:01:27.657Z,99003.00
2019-04-25T17:03:58.395Z,98998.00
2019-04-25T17:06:29.991Z,99005.00
2019-04-25T17:09:00.796Z,98991.00
2019-04-25T17:11:31.959Z,98993.00
2019-04-25T17:14:21.524Z,99000.00
2019-04-25T17:17:17.135Z,98990.00
2019-04-25T17:20:00.925Z,98990.00
2019-04-25T17:22:30.936Z,98997.00
2019-04-25T17:25:01.567Z,98991.00
2019-04-25T17:27:33.140Z,98993.00
2019-04-25T17:30:03.937Z,98990.00
2019-04-25T17:32:54.118Z,98990.00
2019-04-25T17:35:37.390Z,98982.00
2019-04-25T17:38:12.457Z,98994.00
2019-04-25T17:40:43.141Z,98987.00
2019-04-25T17:43:13.795Z,98985.00
2019-04-25T17:45:44.513Z,98983.00
2019-04-25T17:48:16.183Z,98973.00
2019-04-25T17:50:46.826Z,98978.00
2019-04-25T17:53:17.574Z,98979.00
2019-04-25T17:55:48.347Z,98980.00
2019-04-25T17:58:18.920Z,98971.00
2019-04-25T18:00:49.568Z,98972.00
2019-04-25T18:03:21.614Z,98978.00
2019-04-25T18:05:52.282Z,98976.00
2019-04-25T18:08:23.841Z,98969.00
2019-04-25T18:10:57.137Z,98970.00
2019-04-25T18:13:27.712Z,98977.00
2019-04-25T18:16:17.158Z,98973.00
2019-04-25T18:18:57.275Z,98970.00
2019-04-25T18:21:27.846Z,98973.00
2019-04-25T18:24:20.184Z,98968.00
2019-04-25T18:27:01.057Z,98974.00
2019-04-25T18:29:31.722Z,98973.00
2019-04-25T18:32:02.437Z,98973.00
2019-04-25T18:34:53.765Z,98975.00
2019-04-25T18:37:42.678Z,98970.00
2019-04-25T18:40:33.978Z,98976.00
2019-04-25T18:43:23.529Z,98975.00
2019-04-25T18:46:08.025Z,98970.00
2019-04-25T18:48:38.611Z,98972.00
2019-04-25T18:51:09.202Z,98979.00
2019-04-25T18:54:04.554Z,98975.00
2019-04-25T18:56:39.288Z,98975.00
2019-04-25T18:59:27.698Z,98981.00
2019-04-25T19:02:23.536Z,98981.00
2019-04-25T19:05:13.068Z,98982.00
2019-04-25T19:07:43.761Z,98981.00
2019-04-25T19:10:16.402Z,98977.00
2019-04-25T19:12:47.346Z,98985.00
2019-04-25T19:15:18.279Z,98975.00
2019-04-25T19:17:50.196Z,98978.00
2019-04-25T19:20:21.972Z,98977.00
2019-04-25T19:22:52.727Z,98971.00
2019-04-25T19:25:23.455Z,98971.00
2019-04-25T19:27:55.829Z,98971.00
2019-04-25T19:30:26.550Z,98969.00
2019-04-25T19:32:57.219Z,98971.00
2019-04-25T19:35:27.797Z,98965.00
2019-04-25T19:37:58.995Z,98969.00
2019-04-25T19:40:39.619Z,98969.00
2019-04-25T19:43:25.385Z,98960.00
2019-04-25T19:45:56.010Z,98957.00
2019-04-25T19:48:26.566Z,98968.00
2019-04-25T19:50:58.592Z,98963.00
2019-04-25T19:53:29.145Z,98969.00
2019-04-25T19:55:59.807Z,98969.00
2019-04-25T19:58:30.399Z,98969.00
2019-04-25T20:01:01.122Z,98952.00
2019-04-25T20:03:47.533Z,98961.00
2019-04-25T20:06:25.070Z,98962.00
2019-04-25T20:09:04.572Z,98950.00
2019-04-25T20:11:43.828Z,98960.00
2019-04-25T20:14:14.897Z,98959.00
2019-04-25T20:16:46.169Z,98955.00
2019-04-25T20:19:16.739Z,98958.00
2019-04-25T20:21:48.777Z,98963.00
2019-04-25T20:24:20.577Z,98954.00
2019-04-25T20:26:51.176Z,98952.00
2019-04-25T20:29:23.230Z,98957.00
2019-04-25T20:31:54.828Z,98948.00
2019-04-25T20:34:25.437Z,98936.00
2019-04-25T20:36:56.119Z,98942.00
2019-04-25T20:39:28.488Z,98942.00
2019-04-25T20:41:59.057Z,98946.00
2019-04-25T20:44:29.577Z,98938.00
2019-04-25T20:47:00.155Z,98944.00
2019-04-25T20:49:30.698Z,98934.00
2019-04-25T20:52:01.330Z,98929.00
2019-04-25T20:54:31.876Z,98930.00
2019-04-25T20:57:02.440Z,98927.00
2019-04-25T20:59:33.097Z,98918.00
2019-04-25T21:02:05.932Z,98924.00
2019-04-25T21:04:39.662Z,98929.00
2019-04-25T21:07:10.772Z,98930.00
2019-04-25T21:09:41.580Z,98927.00
2019-04-25T21:12:12.482Z,98921.00
2019-04-25T21:15:20.045Z,98922.00
2019-04-25T21:18:03.638Z,98924.00
2019-04-25T21:20:34.211Z,98909.00
2019-04-25T21:23:04.950Z,98908.00
2019-04-25T21:25:35.587Z,98902.00
2019-04-25T21:28:07.357Z,98908.00
2019-04-25T21:30:38.007Z,98898.00
2019-04-25T21:33:08.662Z,98900.00
2019-04-25T21:35:39.597Z,98909.00
2019-04-25T21:38:10.173Z,98913.00
2019-04-25T21:40:51.347Z,98904.00
2019-04-25T21:43:25.870Z,98906.00
2019-04-25T21:45:56.685Z,98901.00
2019-04-25T21:48:27.690Z,98899.00
2019-04-25T21:51:01.066Z,98896.00
2019-04-25T21:53:32.923Z,98894.00
2019-04-25T21:56:04.089Z,98900.00
2019-04-25T21:58:34.691Z,98903.00
2019-04-25T22:01:14.396Z,98894.00
2019-04-25T22:03:44.987Z,98895.00
2019-04-25T22:06:17.756Z,98885.00
2019-04-25T22:08:48.429Z,98885.00
2019-04-25T22:11:18.987Z,98884.00
2019-04-25T22:13:49.740Z,98885.00
2019-04-25T22:16:20.657Z,98884.00
2019-04-25T22:18:51.713Z,98881.00
2019-04-25T22:21:23.263Z,98880.00
2019-04-25T22:24:05.991Z,98883.00
2019-04-25T22:26:26.613Z,98875.00
2019-04-25T22:28:57.741Z,98879.00
2019-04-25T22:31:33.657Z,98872.00
2019-04-25T22:34:17.989Z,98877.00
2019-04-25T22:36:49.102Z,98876.00
2019-04-25T22:39:20.064Z,98876.00
2019-04-25T22:41:51.238Z,98864.00
2019-04-25T22:44:22.801Z,98868.00
2019-04-25T22:46:54.127Z,98868.00
2019-04-25T22:49:26.532Z,98865.00
2019-04-25T22:51:57.125Z,98865.00
2019-04-25T22:54:29.268Z,98864.00
2019-04-25T22:57:00.092Z,98865.00
2019-04-25T22:59:32.020Z,98867.00
2019-04-25T23:02:14.663Z,98867.00
2019-04-25T23:05:15.043Z,98856.00
2019-04-25T23:07:42.701Z,98856.00
2019-04-25T23:10:13.935Z,98849.00
2019-04-25T23:12:44.484Z,98859.00
2019-04-25T23:15:17.475Z,98851.00
2019-04-25T23:17:48.309Z,98851.00
2019-04-25T23:20:21.780Z,98856.00
2019-04-25T23:22:52.434Z,98846.00
2019-04-25T23:25:28.946Z,98840.00
2019-04-25T23:28:18.398Z,98840.00
2019-04-25T23:31:12.589Z,98832.00
2019-04-25T23:33:43.246Z,98839.00
2019-04-25T23:36:15.272Z,98835.00
2019-04-25T23:38:45.949Z,98831.00
2019-04-25T23:41:16.899Z,98828.00
2019-04-25T23:43:47.423Z,98825.00
2019-04-25T23:46:17.987Z,98823.00
2019-04-25T23:48:48.567Z,98818.00
2019-04-25T23:51:19.466Z,98811.00
2019-04-25T23:53:50.485Z,98808.00
2019-04-25T23:56:22.152Z,98808.00
2019-04-25T23:58:53.104Z,98805.00
